Time;durP1;ratioP1;P1;durP2;ratioP2;P2;SDS_P1;SDS_P2;PMS_P1;PMS_P2;Temp;Humidity;BMP_temperature;BMP_pressure;BME280_temperature;BME280_humidity;BME280_pressure;Samples;Min_cycle;Max_cycle;Signal;HPM_P1;HPM_P2
2022/06/19 00:02:20;;;;;;;19.85;4.35;;;;;;;22.15;42.29;92871.44;2048506;70;20603;-73
2022/06/19 00:04:53;;;;;;;18.98;4.43;;;;;;;21.97;42.01;92883.94;2048906;70;20161;-69
2022/06/19 00:07:21;;;;;;;17.38;3.80;;;;;;;22.25;40.22;92878.09;2045258;70;20146;-72
2022/06/19 00:09:47;;;;;;;16.60;3.63;;;;;;;22.02;40.46;92879.00;2045177;70;20248;-74
2022/06/19 00:12:16;;;;;;;17.92;3.58;;;;;;;22.12;40.31;92881.41;2045233;70;20162;-77
2022/06/19 00:14:42;;;;;;;18.27;4.50;;;;;;;22.25;40.15;92880.97;2045175;70;20151;-70
2022/06/19 00:17:09;;;;;;;22.88;4.38;;;;;;;22.01;41.28;92874.69;2045114;70;20230;-71
2022/06/19 00:19:36;;;;;;;19.02;4.38;;;;;;;22.06;40.71;92879.09;2045236;70;20492;-71
2022/06/19 00:22:03;;;;;;;19.27;4.38;;;;;;;21.92;41.31;92868.06;2044951;70;20178;-76
2022/06/19 00:24:29;;;;;;;19.38;4.10;;;;;;;22.08;40.67;92867.66;2045132;70;20593;-71
2022/06/19 00:26:56;;;;;;;19.88;4.50;;;;;;;22.01;40.42;92869.69;2044970;70;20170;-68
2022/06/19 00:29:22;;;;;;;20.60;4.22;;;;;;;21.98;41.04;92862.47;2045227;70;20678;-70
2022/06/19 00:31:47;;;;;;;21.45;4.53;;;;;;;21.85;41.12;92860.03;2045205;70;20154;-69
2022/06/19 00:34:13;;;;;;;18.73;4.40;;;;;;;21.99;40.83;92854.59;2044981;70;20251;-70
2022/06/19 00:36:39;;;;;;;20.40;4.05;;;;;;;21.82;40.49;92847.81;2046202;70;20520;-71
2022/06/19 00:39:04;;;;;;;17.23;4.05;;;;;;;21.86;40.44;92842.16;2045130;70;20158;-68
2022/06/19 00:41:39;;;;;;;21.25;4.13;;;;;;;21.92;39.72;92842.28;2045108;70;20644;-71
2022/06/19 00:44:08;;;;;;;15.50;3.55;;;;;;;21.95;40.55;92840.91;2045035;70;20170;-72
2022/06/19 00:46:51;;;;;;;20.92;4.72;;;;;;;21.81;41.19;92832.03;2044846;70;20170;-69
2022/06/19 00:49:26;;;;;;;21.17;4.28;;;;;;;21.49;41.46;92844.22;2045022;70;20172;-70
2022/06/19 00:52:04;;;;;;;16.23;3.75;;;;;;;21.67;41.01;92843.91;2046326;70;20150;-70
2022/06/19 00:54:36;;;;;;;19.83;4.20;;;;;;;21.70;41.09;92842.53;2048277;70;20154;-71
2022/06/19 00:57:05;;;;;;;15.45;4.20;;;;;;;21.78;39.99;92839.13;2045690;70;20153;-70
2022/06/19 00:59:31;;;;;;;17.52;4.18;;;;;;;21.66;41.19;92830.25;2044885;70;20163;-74
2022/06/19 01:01:57;;;;;;;20.85;4.15;;;;;;;21.64;42.26;92835.94;2044784;70;20265;-72
2022/06/19 01:04:30;;;;;;;22.75;4.38;;;;;;;21.47;42.69;92841.31;2044919;70;20147;-75
2022/06/19 01:06:57;;;;;;;18.67;4.47;;;;;;;21.32;43.96;92833.81;2046057;70;20143;-78
2022/06/19 01:09:23;;;;;;;16.58;3.95;;;;;;;21.25;43.92;92823.59;2047834;70;20521;-73
2022/06/19 01:11:50;;;;;;;17.77;4.18;;;;;;;21.25;43.98;92821.44;2047803;70;20182;-70
2022/06/19 01:14:22;;;;;;;20.70;3.80;;;;;;;21.18;44.06;92822.72;2044680;70;20275;-70
2022/06/19 01:16:49;;;;;;;16.15;4.00;;;;;;;21.26;44.07;92820.06;2047726;70;20147;-69
2022/06/19 01:19:22;;;;;;;21.73;3.72;;;;;;;21.04;43.69;92814.53;2045183;70;20155;-69
2022/06/19 01:22:02;;;;;;;16.80;3.88;;;;;;;21.15;44.60;92809.78;2045672;70;20171;-70
2022/06/19 01:24:50;;;;;;;18.67;4.13;;;;;;;20.90;45.20;92814.19;2045213;70;20593;-69
2022/06/19 01:28:45;;;;;;;19.83;4.40;;;;;;;20.85;45.66;92814.75;2048348;70;20170;-70
2022/06/19 01:30:04;;;;;;;15.43;4.20;;;;;;;20.94;45.52;92814.31;2048214;70;20142;-69
2022/06/19 01:32:33;;;;;;;20.88;3.95;;;;;;;20.91;45.73;92817.78;2047899;70;20143;-69
2022/06/19 01:35:00;;;;;;;17.95;3.90;;;;;;;20.84;46.67;92810.44;2048043;70;20135;-70
2022/06/19 01:37:28;;;;;;;16.25;3.90;;;;;;;20.81;45.87;92809.69;2047610;70;20198;-72
2022/06/19 01:40:09;;;;;;;16.00;4.10;;;;;;;20.86;45.84;92804.78;2044936;70;20166;-70
2022/06/19 01:42:35;;;;;;;16.60;4.28;;;;;;;20.73;45.56;92795.91;2041478;70;20209;-71
2022/06/19 01:45:01;;;;;;;22.88;4.40;;;;;;;20.81;44.97;92792.53;2044957;70;20194;-71
2022/06/19 01:47:30;;;;;;;20.95;4.55;;;;;;;20.67;46.18;92783.59;2046136;70;20149;-72
2022/06/19 01:49:59;;;;;;;17.63;4.07;;;;;;;20.68;46.30;92788.63;2048690;70;20587;-70
2022/06/19 01:52:27;;;;;;;16.45;4.55;;;;;;;20.64;46.75;92782.81;2048568;70;20524;-68
2022/06/19 01:55:03;;;;;;;15.63;3.92;;;;;;;20.76;45.66;92768.09;2048212;70;20666;-73
2022/06/19 01:57:32;;;;;;;20.38;4.55;;;;;;;20.69;45.70;92772.91;2048729;70;20182;-72
2022/06/19 01:59:58;;;;;;;21.42;4.10;;;;;;;20.28;47.14;92769.00;2048698;70;20601;-69
2022/06/19 02:02:24;;;;;;;18.80;4.60;;;;;;;20.46;46.83;92768.03;2048206;70;20150;-69
2022/06/19 02:04:51;;;;;;;18.65;4.93;;;;;;;20.14;48.08;92762.19;2048728;70;20143;-72
2022/06/19 02:07:21;;;;;;;17.27;4.15;;;;;;;20.29;47.44;92770.47;2048924;70;20141;-70
2022/06/19 02:09:48;;;;;;;22.00;4.28;;;;;;;20.25;46.72;92769.63;2048552;70;20238;-69
2022/06/19 02:12:14;;;;;;;18.88;4.40;;;;;;;20.11;47.92;92766.41;2048363;70;20171;-68
2022/06/19 02:14:40;;;;;;;21.75;4.35;;;;;;;20.19;47.29;92760.91;2048267;70;20153;-68
2022/06/19 02:17:16;;;;;;;21.90;5.03;;;;;;;20.19;46.89;92744.47;2048533;70;20170;-69
2022/06/19 02:19:42;;;;;;;22.20;4.82;;;;;;;20.24;46.54;92748.88;2048287;70;20151;-72
2022/06/19 02:22:14;;;;;;;15.80;4.50;;;;;;;20.16;46.75;92745.84;2048960;70;20135;-69
2022/06/19 02:24:42;;;;;;;19.50;4.68;;;;;;;19.59;48.87;92738.56;2048768;70;20588;-69
2022/06/19 02:27:09;;;;;;;16.17;4.00;;;;;;;19.83;48.11;92747.09;2048552;70;20162;-68
2022/06/19 02:29:38;;;;;;;15.65;4.18;;;;;;;20.05;46.40;92739.13;2045143;70;20159;-70
2022/06/19 02:32:07;;;;;;;19.25;5.03;;;;;;;20.18;45.58;92736.59;2045229;70;20155;-69
2022/06/19 02:34:37;;;;;;;17.35;4.00;;;;;;;20.21;45.20;92720.94;2045260;70;20147;-75
2022/06/19 02:37:17;;;;;;;19.23;4.32;;;;;;;20.29;45.45;92730.44;2042001;70;20151;-71
2022/06/19 02:39:55;;;;;;;16.63;3.50;;;;;;;20.18;46.31;92722.28;2045283;70;20147;-71
2022/06/19 02:42:20;;;;;;;24.30;4.03;;;;;;;20.14;46.88;92722.91;2045292;70;20147;-72
2022/06/19 02:44:57;;;;;;;13.93;3.63;;;;;;;20.16;46.46;92728.69;2045367;70;20182;-70
2022/06/19 02:47:25;;;;;;;11.07;3.80;;;;;;;19.73;47.82;92724.69;2041890;70;20158;-71
2022/06/19 02:49:51;;;;;;;21.65;4.95;;;;;;;19.99;46.82;92735.38;2045305;70;20553;-71
2022/06/19 02:52:17;;;;;;;17.17;4.18;;;;;;;20.03;46.04;92727.66;2045083;70;20143;-71
2022/06/19 02:54:42;;;;;;;20.08;4.18;;;;;;;20.11;45.45;92726.38;2045176;70;20264;-69
2022/06/19 02:57:10;;;;;;;18.25;3.85;;;;;;;20.06;45.72;92734.13;2044966;70;20147;-68
2022/06/19 02:59:36;;;;;;;13.95;3.80;;;;;;;20.06;46.43;92732.00;2042026;70;20557;-68
2022/06/19 03:02:02;;;;;;;19.38;4.40;;;;;;;19.99;46.10;92736.09;2045251;70;20146;-69
2022/06/19 03:04:36;;;;;;;21.80;4.10;;;;;;;19.73;48.76;92738.97;2045139;70;20260;-69
2022/06/19 03:07:03;;;;;;;16.85;4.10;;;;;;;19.75;47.65;92730.47;2045372;70;20684;-76
2022/06/19 03:09:29;;;;;;;22.80;3.90;;;;;;;19.93;47.24;92730.25;2045239;70;20268;-72
2022/06/19 03:11:55;;;;;;;15.85;4.22;;;;;;;19.78;47.39;92737.69;2045299;69;20242;-71
2022/06/19 03:14:20;;;;;;;21.48;4.25;;;;;;;19.83;47.89;92735.66;2045602;70;20609;-70
2022/06/19 03:16:46;;;;;;;19.55;3.85;;;;;;;19.73;45.75;92735.41;2045519;70;20307;-69
2022/06/19 03:19:13;;;;;;;21.13;4.32;;;;;;;19.80;46.63;92734.91;2045284;70;20147;-69
2022/06/19 03:21:39;;;;;;;16.73;4.25;;;;;;;19.85;47.27;92743.56;2045639;70;20162;-71
2022/06/19 03:24:04;;;;;;;15.32;3.58;;;;;;;19.87;48.04;92744.34;2041826;70;20730;-71
2022/06/19 03:26:30;;;;;;;18.10;3.45;;;;;;;19.77;49.41;92747.66;2045454;70;20139;-69
2022/06/19 03:28:57;;;;;;;14.18;3.92;;;;;;;19.67;48.71;92738.09;2045428;70;20147;-69
2022/06/19 03:31:25;;;;;;;21.60;4.35;;;;;;;19.65;49.16;92746.59;2042200;70;20146;-72
2022/06/19 03:33:51;;;;;;;13.73;3.88;;;;;;;19.71;49.00;92741.06;2045648;70;20149;-75
2022/06/19 03:36:18;;;;;;;16.15;4.07;;;;;;;19.87;48.23;92752.19;2045290;70;20536;-73
2022/06/19 03:38:44;;;;;;;22.13;4.15;;;;;;;19.73;47.42;92743.97;2045370;70;20146;-75
2022/06/19 03:41:11;;;;;;;21.15;4.45;;;;;;;19.83;45.45;92746.38;2045534;70;20147;-71
2022/06/19 03:43:37;;;;;;;14.73;4.20;;;;;;;19.79;46.96;92755.53;2045508;70;20232;-71
2022/06/19 03:46:12;;;;;;;24.55;4.10;;;;;;;19.88;45.54;92753.63;2045216;70;20242;-70
2022/06/19 03:48:42;;;;;;;15.98;4.15;;;;;;;19.79;46.74;92750.59;2045374;70;20613;-71
2022/06/19 03:51:09;;;;;;;17.73;3.70;;;;;;;19.80;46.04;92754.16;2048505;70;20162;-69
2022/06/19 03:53:35;;;;;;;12.48;3.75;;;;;;;19.98;44.78;92746.09;2048910;70;20147;-70
2022/06/19 03:56:02;;;;;;;20.25;4.38;;;;;;;19.77;46.20;92753.38;2048629;70;20184;-76
2022/06/19 03:58:45;;;;;;;14.02;3.47;;;;;;;19.86;45.35;92745.03;2048313;70;20163;-76
2022/06/19 04:01:17;;;;;;;21.58;4.47;;;;;;;19.66;45.80;92745.94;2048319;70;20162;-76
2022/06/19 04:03:43;;;;;;;16.48;4.43;;;;;;;19.77;45.71;92744.06;2045601;70;20319;-75
2022/06/19 04:06:10;;;;;;;16.60;3.90;;;;;;;19.94;45.54;92750.97;2045160;70;20659;-76
2022/06/19 04:08:37;;;;;;;24.80;4.30;;;;;;;19.88;46.95;92751.50;2045319;70;20703;-70
2022/06/19 04:11:04;;;;;;;16.40;4.10;;;;;;;19.67;48.30;92755.22;2045383;70;20608;-71
2022/06/19 04:13:35;;;;;;;14.82;3.60;;;;;;;19.50;48.22;92751.16;2045377;70;20173;-70
2022/06/19 04:16:02;;;;;;;22.88;5.05;;;;;;;19.72;48.30;92751.06;2045320;70;20154;-74
2022/06/19 04:18:29;;;;;;;17.75;4.03;;;;;;;19.65;49.40;92750.16;2045547;70;20143;-74
2022/06/19 04:20:56;;;;;;;16.90;4.47;;;;;;;19.79;47.68;92750.59;2047011;70;20151;-73
2022/06/19 04:23:22;;;;;;;16.75;3.90;;;;;;;19.58;48.45;92748.53;2048708;70;20237;-73
2022/06/19 04:25:49;;;;;;;17.20;4.68;;;;;;;19.33;48.99;92757.78;2048554;70;20174;-72
2022/06/19 04:28:17;;;;;;;14.30;3.92;;;;;;;19.55;48.51;92747.00;2048479;70;20143;-70
2022/06/19 04:30:46;;;;;;;18.35;3.90;;;;;;;19.65;49.29;92749.44;2046982;70;20190;-74
2022/06/19 04:33:18;;;;;;;19.00;4.57;;;;;;;19.59;49.66;92749.97;2045197;70;20158;-70
2022/06/19 04:35:45;;;;;;;18.63;4.70;;;;;;;19.78;48.28;92743.41;2048693;70;20151;-70
2022/06/19 04:38:10;;;;;;;18.60;4.93;;;;;;;19.77;47.68;92744.06;2048740;70;20151;-70
2022/06/19 04:40:37;;;;;;;16.35;4.68;;;;;;;19.41;48.28;92746.59;2048756;70;20149;-75
2022/06/19 04:43:04;;;;;;;16.60;4.28;;;;;;;19.54;48.10;92734.84;2048615;70;20619;-71
2022/06/19 04:45:31;;;;;;;19.42;4.30;;;;;;;19.59;48.08;92744.28;2048460;70;20161;-71
2022/06/19 04:47:57;;;;;;;25.55;5.28;;;;;;;19.53;47.08;92741.97;2048029;70;20145;-70
2022/06/19 04:50:23;;;;;;;18.50;4.05;;;;;;;19.60;48.33;92739.28;2045002;70;20154;-70
2022/06/19 04:52:51;;;;;;;14.63;4.55;;;;;;;19.66;49.07;92737.38;2045347;70;20162;-70
2022/06/19 04:55:18;;;;;;;16.30;4.40;;;;;;;19.61;49.98;92738.66;2045182;70;20151;-74
2022/06/19 04:57:44;;;;;;;17.15;3.92;;;;;;;19.82;48.44;92739.19;2045318;70;20632;-72
2022/06/19 05:00:13;;;;;;;12.88;3.53;;;;;;;19.78;50.53;92737.69;2042300;70;20159;-72
2022/06/19 05:02:40;;;;;;;24.92;4.00;;;;;;;19.69;51.31;92724.59;2048426;70;20215;-70
2022/06/19 05:05:07;;;;;;;14.85;4.18;;;;;;;19.87;50.27;92737.91;2045606;70;20709;-70
2022/06/19 05:07:34;;;;;;;17.33;4.18;;;;;;;19.76;51.37;92745.47;2045175;70;20139;-72
2022/06/19 05:09:59;;;;;;;13.20;4.10;;;;;;;19.47;50.92;92747.53;2045303;70;20175;-70
2022/06/19 05:12:26;;;;;;;10.73;4.20;;;;;;;19.59;49.82;92735.69;2045305;70;20269;-70
2022/06/19 05:14:53;;;;;;;19.30;5.00;;;;;;;19.55;51.11;92744.16;2045292;70;20151;-72
2022/06/19 05:17:19;;;;;;;19.05;4.72;;;;;;;19.55;50.49;92742.03;2045245;70;20161;-71
2022/06/19 05:19:45;;;;;;;15.90;4.32;;;;;;;19.79;49.34;92738.41;2047960;70;20150;-73
2022/06/19 05:22:11;;;;;;;20.83;5.20;;;;;;;19.57;49.60;92737.78;2049775;70;20145;-72
2022/06/19 05:24:37;;;;;;;14.05;4.88;;;;;;;19.58;49.89;92742.09;2049699;70;20174;-71
2022/06/19 05:27:09;;;;;;;21.92;4.93;;;;;;;19.69;50.38;92738.13;2046244;70;20568;-74
2022/06/19 05:29:36;;;;;;;17.92;4.55;;;;;;;19.59;52.80;92738.56;2049252;70;20157;-74
2022/06/19 05:32:04;;;;;;;13.57;4.78;;;;;;;19.72;51.29;92739.66;2046222;70;20204;-71
2022/06/19 05:34:31;;;;;;;18.85;4.97;;;;;;;19.61;52.62;92735.81;2048391;70;20272;-70
2022/06/19 05:36:56;;;;;;;15.30;4.88;;;;;;;19.47;51.97;92730.38;2049705;70;20607;-73
2022/06/19 05:39:22;;;;;;;14.85;4.00;;;;;;;19.66;51.23;92733.78;2049646;70;20587;-76
2022/06/19 05:41:48;;;;;;;16.52;4.40;;;;;;;19.67;52.10;92726.66;2049664;70;20173;-73
2022/06/19 05:44:14;;;;;;;17.20;4.30;;;;;;;19.69;52.19;92732.44;2046503;70;20580;-75
2022/06/19 05:46:41;;;;;;;22.60;5.00;;;;;;;19.68;52.45;92728.84;2049418;70;20146;-70
2022/06/19 05:49:08;;;;;;;19.92;4.82;;;;;;;19.66;52.78;92723.09;2046900;70;20221;-76
2022/06/19 05:51:34;;;;;;;20.48;4.65;;;;;;;19.73;52.14;92721.13;2043071;70;20150;-73
2022/06/19 05:54:00;;;;;;;16.58;4.80;;;;;;;19.90;51.66;92731.59;2046394;70;20139;-70
2022/06/19 05:56:28;;;;;;;18.23;3.72;;;;;;;20.06;50.03;92725.56;2042997;70;20163;-71
2022/06/19 05:58:54;;;;;;;14.95;4.35;;;;;;;19.92;52.19;92730.91;2046118;70;20147;-72
2022/06/19 06:01:22;;;;;;;16.15;4.57;;;;;;;19.91;52.59;92724.47;2048439;69;20146;-73
2022/06/19 06:03:48;;;;;;;15.40;4.10;;;;;;;20.01;53.08;92724.72;2047346;70;20204;-70
2022/06/19 06:06:20;;;;;;;17.45;4.28;;;;;;;20.03;53.04;92730.50;2042487;70;20151;-71
2022/06/19 06:08:47;;;;;;;19.58;3.92;;;;;;;20.13;52.17;92720.75;2046484;70;20691;-73
2022/06/19 06:11:13;;;;;;;15.55;4.03;;;;;;;20.09;52.35;92721.34;2048755;70;20190;-73
2022/06/19 06:13:39;;;;;;;14.32;4.43;;;;;;;20.08;49.50;92719.19;2049656;70;20170;-72
2022/06/19 06:16:05;;;;;;;14.93;4.35;;;;;;;19.99;50.96;92713.25;2049589;70;20189;-72
2022/06/19 06:18:31;;;;;;;21.75;4.25;;;;;;;20.20;52.23;92716.63;2049658;70;20143;-73
2022/06/19 06:21:03;;;;;;;14.93;4.32;;;;;;;20.24;53.51;92716.72;2049685;70;20153;-71
2022/06/19 06:23:30;;;;;;;12.43;4.35;;;;;;;20.42;51.25;92707.88;2049530;70;20185;-72
2022/06/19 06:26:11;;;;;;;12.35;4.53;;;;;;;20.52;51.17;92714.59;2049248;70;20705;-73
2022/06/19 06:28:39;;;;;;;19.00;4.38;;;;;;;20.64;50.22;92705.59;2049520;69;20171;-68
2022/06/19 06:31:05;;;;;;;16.38;4.57;;;;;;;20.74;51.54;92708.66;2043741;70;20166;-70
2022/06/19 06:33:31;;;;;;;19.83;4.85;;;;;;;20.81;50.37;92704.56;2048528;70;20620;-70
2022/06/19 06:35:57;;;;;;;16.63;4.32;;;;;;;20.84;51.55;92702.44;2048520;70;20628;-73
2022/06/19 06:38:26;;;;;;;19.50;4.47;;;;;;;20.97;50.57;92704.19;2048455;70;20312;-72
2022/06/19 06:40:52;;;;;;;16.45;4.70;;;;;;;21.00;49.71;92694.25;2047414;70;20147;-70
2022/06/19 06:43:18;;;;;;;13.18;4.47;;;;;;;21.14;49.57;92687.38;2045431;70;20150;-71
2022/06/19 06:45:44;;;;;;;22.52;5.32;;;;;;;21.27;50.16;92691.94;2045454;70;20293;-73
2022/06/19 06:48:10;;;;;;;17.88;4.43;;;;;;;21.35;50.74;92697.88;2047079;70;20147;-71
2022/06/19 06:50:38;;;;;;;16.48;4.07;;;;;;;21.46;48.59;92710.25;2048914;70;20165;-71
2022/06/19 06:53:04;;;;;;;15.15;4.00;;;;;;;21.55;48.61;92701.16;2048946;70;20142;-73
2022/06/19 06:55:30;;;;;;;19.88;4.78;;;;;;;21.57;49.01;92695.44;2048859;70;20157;-75
2022/06/19 06:57:55;;;;;;;15.77;4.15;;;;;;;21.71;47.83;92686.41;2048641;70;20175;-73
2022/06/19 07:00:23;;;;;;;16.55;4.28;;;;;;;21.79;50.66;92692.28;2048574;69;20266;-71
2022/06/19 07:02:50;;;;;;;16.25;3.88;;;;;;;21.82;50.16;92682.34;2047992;70;20146;-71
2022/06/19 07:05:16;;;;;;;20.95;3.90;;;;;;;21.95;49.79;92676.84;2048600;70;20224;-77
2022/06/19 07:07:42;;;;;;;16.88;3.92;;;;;;;22.03;49.92;92671.22;2048373;70;20145;-75
2022/06/19 07:10:08;;;;;;;19.73;4.47;;;;;;;22.13;49.85;92664.97;2048363;70;20151;-71
2022/06/19 07:12:34;;;;;;;16.50;4.20;;;;;;;22.21;50.08;92662.25;2048322;70;20528;-76
2022/06/19 07:15:00;;;;;;;19.67;4.30;;;;;;;22.27;49.92;92650.91;2048540;70;20135;-71
2022/06/19 07:17:26;;;;;;;12.93;3.78;;;;;;;22.35;50.62;92650.28;2044095;69;20264;-72
2022/06/19 07:19:51;;;;;;;15.73;4.00;;;;;;;22.42;50.59;92652.56;2048321;70;20151;-71
2022/06/19 07:22:18;;;;;;;18.83;3.88;;;;;;;22.52;50.35;92641.25;2048208;70;20155;-70
2022/06/19 07:24:44;;;;;;;19.23;4.72;;;;;;;22.58;50.09;92635.59;2048458;70;20638;-72
2022/06/19 07:27:11;;;;;;;15.43;4.03;;;;;;;22.66;51.06;92642.88;2045097;70;20158;-70
2022/06/19 07:29:44;;;;;;;19.50;4.88;;;;;;;22.71;50.22;92647.97;2047354;69;20639;-72
2022/06/19 07:32:11;;;;;;;22.38;4.50;;;;;;;22.82;50.02;92641.00;2046203;70;20507;-75
2022/06/19 07:34:38;;;;;;;16.95;4.55;;;;;;;22.98;50.59;92640.50;2048276;70;20689;-71
2022/06/19 07:37:05;;;;;;;26.10;5.70;;;;;;;23.06;50.60;92637.03;2044672;70;20139;-73
2022/06/19 07:39:32;;;;;;;23.00;5.00;;;;;;;23.10;50.32;92631.34;2048432;70;20246;-70
2022/06/19 07:41:59;;;;;;;18.00;4.88;;;;;;;23.28;46.84;92630.84;2048362;70;20656;-72
2022/06/19 07:44:25;;;;;;;20.52;5.00;;;;;;;23.32;48.15;92628.00;2048474;70;20520;-74
2022/06/19 07:52:19;;;;;;;17.63;4.78;;;;;;;23.73;49.58;92623.50;2048282;70;20584;-71
2022/06/19 07:54:44;;;;;;;21.70;5.25;;;;;;;23.89;49.96;92622.22;2045175;70;20146;-71
2022/06/19 07:57:10;;;;;;;16.10;5.05;;;;;;;23.97;48.83;92610.81;2048168;70;20154;-71
2022/06/19 07:59:38;;;;;;;19.25;4.80;;;;;;;24.07;46.43;92613.75;2048471;70;20480;-71
2022/06/19 08:02:04;;;;;;;19.33;5.45;;;;;;;24.26;46.26;92615.38;2044927;70;20229;-73
2022/06/19 08:04:29;;;;;;;24.30;6.43;;;;;;;24.32;45.91;92612.53;2048658;70;20211;-72
2022/06/19 08:06:55;;;;;;;26.77;6.70;;;;;;;24.59;46.05;92618.50;2047390;70;20238;-77
2022/06/19 08:09:21;;;;;;;17.95;6.63;;;;;;;24.62;45.53;92617.09;2046193;70;20170;-73
2022/06/19 08:11:46;;;;;;;25.50;7.20;;;;;;;24.87;44.00;92608.63;2045183;70;20174;-70
2022/06/19 08:14:13;;;;;;;16.00;5.90;;;;;;;24.98;43.24;92610.88;2042101;70;20169;-69
2022/06/19 08:16:38;;;;;;;22.20;6.70;;;;;;;25.34;43.05;92609.63;2041958;70;20575;-69
2022/06/19 08:19:04;;;;;;;24.10;6.88;;;;;;;25.38;42.36;92609.63;2048234;70;20153;-71
2022/06/19 08:21:30;;;;;;;17.50;6.70;;;;;;;25.69;42.48;92603.97;2048127;70;20150;-72
2022/06/19 08:23:55;;;;;;;22.75;6.57;;;;;;;26.13;41.88;92599.78;2048393;70;20190;-74
2022/06/19 08:26:21;;;;;;;17.58;6.40;;;;;;;26.64;40.92;92591.88;2048092;70;20143;-72
2022/06/19 08:29:02;;;;;;;21.60;6.90;;;;;;;26.96;40.67;92593.25;2048603;70;20139;-77
2022/06/19 08:31:29;;;;;;;24.10;6.38;;;;;;;27.08;39.87;92596.88;2045763;70;20161;-76
2022/06/19 08:33:56;;;;;;;21.30;6.60;;;;;;;27.46;39.88;92588.78;2048719;70;20234;-70
2022/06/19 08:36:24;;;;;;;22.02;7.10;;;;;;;27.65;41.58;92584.38;2048844;70;20174;-69
2022/06/19 08:38:54;;;;;;;16.83;5.80;;;;;;;28.05;39.30;92583.44;2048093;70;20598;-74
2022/06/19 08:41:41;;;;;;;20.27;5.78;;;;;;;28.25;39.52;92578.97;2045811;70;20149;-72
2022/06/19 08:44:06;;;;;;;23.30;5.93;;;;;;;28.66;38.30;92572.88;2045963;70;20167;-73
2022/06/19 08:46:39;;;;;;;15.25;5.57;;;;;;;28.81;36.74;92571.28;2045593;70;20150;-73
2022/06/19 08:49:32;;;;;;;17.85;5.82;;;;;;;29.44;36.05;92569.91;2047049;70;20162;-69
2022/06/19 08:52:09;;;;;;;13.00;4.78;;;;;;;30.02;29.55;92564.81;2046474;70;20242;-72
2022/06/19 08:54:41;;;;;;;18.85;5.00;;;;;;;29.79;33.28;92562.22;2045351;70;20143;-70
2022/06/19 08:57:26;;;;;;;20.85;4.10;;;;;;;30.04;29.85;92562.59;2045870;70;20185;-73
2022/06/19 09:00:16;;;;;;;17.25;4.95;;;;;;;30.85;32.02;92557.72;2047098;70;20155;-70
2022/06/19 09:02:51;;;;;;;16.42;5.88;;;;;;;30.51;32.11;92555.38;2048162;70;20173;-77
2022/06/19 09:05:44;;;;;;;17.15;5.90;;;;;;;30.51;32.89;92552.47;2048589;70;20157;-71
2022/06/19 09:08:32;;;;;;;30.30;7.22;;;;;;;30.79;32.92;92557.09;2048183;70;20146;-71
2022/06/19 09:11:14;;;;;;;17.05;6.68;;;;;;;31.34;33.07;92551.03;2048517;70;20143;-73
2022/06/19 09:13:58;;;;;;;18.77;6.20;;;;;;;31.38;32.49;92548.06;2048966;70;20635;-74
2022/06/19 09:16:46;;;;;;;17.17;6.40;;;;;;;31.23;33.58;92541.03;2048868;70;20614;-72
2022/06/19 09:19:26;;;;;;;17.10;6.80;;;;;;;31.45;32.11;92542.81;2048943;70;20199;-70
2022/06/19 09:22:25;;;;;;;15.60;6.03;;;;;;;31.62;31.38;92541.00;2048560;70;20142;-69
2022/06/19 09:25:06;;;;;;;19.10;6.38;;;;;;;31.88;31.28;92541.94;2046910;70;20217;-77
2022/06/19 09:27:46;;;;;;;19.75;6.10;;;;;;;32.34;32.95;92539.44;2045696;70;20146;-73
2022/06/19 09:30:23;;;;;;;17.75;6.65;;;;;;;32.87;31.20;92535.25;2042407;70;20619;-72
2022/06/19 09:32:56;;;;;;;20.73;6.57;;;;;;;32.67;32.02;92536.50;2045566;70;20687;-80
2022/06/19 09:35:38;;;;;;;21.23;6.80;;;;;;;33.04;31.70;92533.38;2045704;70;20209;-80
2022/06/19 09:38:11;;;;;;;18.92;6.03;;;;;;;33.30;32.55;92531.91;2042635;70;20151;-70
2022/06/19 09:40:45;;;;;;;16.70;6.30;;;;;;;33.61;30.88;92534.72;2048059;70;20612;-78
2022/06/19 09:43:22;;;;;;;15.15;6.20;;;;;;;33.87;31.32;92529.63;2046801;70;20220;-75
2022/06/19 09:45:57;;;;;;;19.15;6.28;;;;;;;33.79;29.65;92518.88;2048478;70;20150;-79
2022/06/19 09:48:37;;;;;;;15.45;6.00;;;;;;;34.05;29.20;92510.84;2048485;70;20204;-79
2022/06/19 09:51:15;;;;;;;16.15;5.65;;;;;;;34.10;29.90;92509.25;2048510;70;20527;-75
2022/06/19 09:53:50;;;;;;;17.42;6.65;;;;;;;34.61;30.47;92511.28;2048506;70;20220;-83
2022/06/19 09:56:26;;;;;;;17.95;5.63;;;;;;;34.91;30.09;92511.72;2047780;70;20154;-72
2022/06/19 09:59:00;;;;;;;13.73;5.35;;;;;;;35.21;29.89;92506.34;2048218;70;20157;-76
2022/06/19 10:01:27;;;;;;;19.40;6.00;;;;;;;35.26;30.27;92505.41;2048392;70;20281;-75
2022/06/19 10:04:01;;;;;;;18.00;5.35;;;;;;;35.81;29.43;92494.66;2045295;70;20180;-71
2022/06/19 10:06:50;;;;;;;22.63;5.57;;;;;;;35.79;28.57;92499.88;2049215;70;20194;-71
2022/06/19 10:09:45;;;;;;;18.98;5.50;;;;;;;36.04;27.73;92482.81;2049221;70;20309;-72
2022/06/19 10:12:18;;;;;;;24.83;5.13;;;;;;;36.42;26.94;92479.13;2049381;70;20147;-76
2022/06/19 10:14:47;;;;;;;14.77;5.50;;;;;;;36.66;26.92;92480.41;2048709;70;20151;-74
2022/06/19 10:17:44;;;;;;;21.15;4.97;;;;;;;36.92;25.71;92472.72;2045860;70;20623;-71
2022/06/19 10:20:16;;;;;;;18.67;5.50;;;;;;;36.40;26.79;92471.16;2049034;70;20665;-72
2022/06/19 10:22:45;;;;;;;25.55;5.85;;;;;;;36.73;26.06;92461.75;2049311;70;20139;-74
2022/06/19 10:25:29;;;;;;;15.30;5.13;;;;;;;37.32;25.86;92464.38;2049301;70;20193;-72
2022/06/19 10:27:55;;;;;;;17.70;5.03;;;;;;;37.32;23.59;92459.22;2049456;70;20659;-79
2022/06/19 10:30:33;;;;;;;16.60;5.25;;;;;;;36.86;24.59;92456.78;2049245;70;20608;-73
2022/06/19 10:33:34;;;;;;;22.85;5.30;;;;;;;37.82;24.28;92448.94;2048420;70;20205;-76
2022/06/19 10:36:15;;;;;;;18.00;5.28;;;;;;;38.77;24.86;92449.56;2042615;70;20624;-73
2022/06/19 10:38:56;;;;;;;23.50;5.30;;;;;;;39.28;23.45;92449.91;2047555;70;20655;-75
2022/06/19 10:44:41;;;;;;;12.82;4.43;;;;;;;40.01;23.90;92445.31;2049274;70;20596;-75
2022/06/19 10:47:17;;;;;;;18.13;4.45;;;;;;;40.19;21.86;92440.66;2045710;70;20135;-76
2022/06/19 10:49:52;;;;;;;19.92;4.40;;;;;;;40.90;20.18;92441.78;2045878;70;20219;-73
2022/06/19 10:52:28;;;;;;;16.33;4.20;;;;;;;41.11;20.50;92430.22;2049117;70;20143;-74
2022/06/19 10:55:05;;;;;;;12.80;4.15;;;;;;;41.38;19.68;92434.56;2049262;70;20581;-74
2022/06/19 10:57:53;;;;;;;15.70;4.20;;;;;;;43.05;19.48;92417.31;2046391;70;20225;-71
2022/06/19 11:00:19;;;;;;;16.92;4.03;;;;;;;43.85;17.35;92425.13;2049210;70;20689;-73
2022/06/19 11:05:48;;;;;;;15.63;4.03;;;;;;;47.93;15.54;92436.44;2049194;70;20243;-70
2022/06/19 11:08:15;;;;;;;15.30;3.95;;;;;;;48.08;13.57;92425.41;2045726;70;20146;-74
2022/06/19 11:10:52;;;;;;;19.52;4.07;;;;;;;48.01;14.76;92430.47;2048518;70;20551;-70
2022/06/19 11:13:18;;;;;;;15.52;3.88;;;;;;;48.69;13.25;92424.53;2045961;70;20603;-70
2022/06/19 11:15:58;;;;;;;15.13;3.95;;;;;;;49.93;13.14;92430.34;2046031;70;20139;-72
2022/06/19 11:18:25;;;;;;;15.00;3.30;;;;;;;51.13;12.30;92423.97;2045859;70;20147;-73
2022/06/19 11:21:02;;;;;;;13.13;3.15;;;;;;;50.73;12.31;92420.44;2045876;70;20151;-73
2022/06/19 11:23:34;;;;;;;14.02;3.40;;;;;;;48.51;12.71;92406.69;2045835;70;20612;-75
2022/06/19 11:26:38;;;;;;;19.55;3.70;;;;;;;51.06;11.46;92403.63;2042380;70;20582;-72
2022/06/19 11:29:19;;;;;;;14.88;3.10;;;;;;;52.23;10.65;92401.47;2043381;70;20178;-73
2022/06/19 11:32:14;;;;;;;16.55;3.38;;;;;;;48.32;12.37;92383.72;2045785;70;20151;-75
2022/06/19 11:34:44;;;;;;;15.23;3.60;;;;;;;52.83;10.63;92398.91;2045793;70;20148;-71
2022/06/19 11:37:15;;;;;;;10.95;3.28;;;;;;;51.89;11.12;92390.09;2046010;70;20596;-71
2022/06/19 11:39:45;;;;;;;15.85;3.15;;;;;;;49.35;11.84;92372.19;2045873;70;20154;-76
2022/06/19 11:42:25;;;;;;;17.60;3.42;;;;;;;50.28;10.77;92379.88;2045781;70;20612;-73
2022/06/19 11:45:03;;;;;;;17.63;3.47;;;;;;;51.51;10.66;92380.44;2045642;70;20161;-71
2022/06/19 11:47:38;;;;;;;12.65;3.10;;;;;;;54.41;9.84;92376.34;2045642;70;20260;-74
2022/06/19 11:50:14;;;;;;;15.85;3.30;;;;;;;52.89;9.10;92377.28;2045760;70;20175;-77
2022/06/19 11:52:44;;;;;;;17.75;2.90;;;;;;;54.73;8.90;92368.91;2045886;70;20147;-75